GTI152 UBBB-OMDB
Flight info
| Callsign | GTI152 |
|---|---|
| Flight time | 2h 23m |
| Altitude | 35000 |
| Route | BAMAK N72 SAV P574 SYZ G666 ORSAR R784 TATLA L223 VUTEB |
| Aircraft | B77L/H-SDE1E2E3FGHIJ2J3J4J5M1RWXY/LB1D1 |
Departure
| Time | 2026-04-26 17:43 |
|---|---|
| Airport | Heydar Aliyev International Airport (UBBB) |
Arrival
| Time | 2026-04-26 20:06 |
|---|---|
| Airport | Dubai International Airport (OMDB) |
| Time | Latitude | Longitude | Altitude | Speed | Heading |
|---|---|---|---|---|---|
| 2026-04-26 16:50 | 40.45913 | 50.05845 | 13 ft | 0 kts | 268° |
| 2026-04-26 17:27 | 40.45914 | 50.05868 | 13 ft | 4 kts | 268° |
| 2026-04-26 17:27 | 40.45915 | 50.05904 | 13 ft | 4 kts | 268° |
| 2026-04-26 17:27 | 40.45915 | 50.05934 | 16 ft | 4 kts | 284° |
| 2026-04-26 17:28 | 40.45907 | 50.05956 | 13 ft | 4 kts | 331° |
| 2026-04-26 17:28 | 40.45884 | 50.05964 | 14 ft | 4 kts | 358° |
| 2026-04-26 17:28 | 40.45865 | 50.05965 | 14 ft | 1 kts | 0° |
| 2026-04-26 17:28 | 40.45862 | 50.05965 | 14 ft | 0 kts | 0° |
| 2026-04-26 17:33 | 40.45888 | 50.05963 | 16 ft | 11 kts | 356° |
| 2026-04-26 17:33 | 40.45969 | 50.05961 | 13 ft | 12 kts | 360° |
| 2026-04-26 17:34 | 40.46146 | 50.05958 | 13 ft | 13 kts | 359° |
| 2026-04-26 17:34 | 40.46239 | 50.05957 | 12 ft | 13 kts | 359° |
| 2026-04-26 17:34 | 40.46332 | 50.05956 | 12 ft | 13 kts | 359° |
| 2026-04-26 17:34 | 40.46425 | 50.05955 | 13 ft | 13 kts | 359° |
| 2026-04-26 17:35 | 40.46516 | 50.05953 | 12 ft | 13 kts | 359° |
| 2026-04-26 17:35 | 40.46581 | 50.06017 | 12 ft | 13 kts | 83° |
| 2026-04-26 17:35 | 40.46643 | 50.06089 | 13 ft | 14 kts | 4° |
| 2026-04-26 17:35 | 40.46743 | 50.06090 | 13 ft | 16 kts | 358° |
| 2026-04-26 17:36 | 40.46868 | 50.06087 | 13 ft | 19 kts | 1° |
| 2026-04-26 17:36 | 40.47001 | 50.06086 | 13 ft | 19 kts | 359° |
| 2026-04-26 17:36 | 40.47134 | 50.06084 | 13 ft | 19 kts | 360° |
| 2026-04-26 17:36 | 40.47267 | 50.06083 | 12 ft | 19 kts | 359° |
| 2026-04-26 17:37 | 40.47400 | 50.06081 | 12 ft | 19 kts | 359° |
| 2026-04-26 17:37 | 40.47533 | 50.06079 | 13 ft | 19 kts | 359° |
| 2026-04-26 17:37 | 40.47666 | 50.06077 | 13 ft | 19 kts | 359° |
| 2026-04-26 17:38 | 40.47931 | 50.06074 | 13 ft | 19 kts | 359° |
| 2026-04-26 17:38 | 40.48065 | 50.06072 | 13 ft | 19 kts | 359° |
| 2026-04-26 17:38 | 40.48192 | 50.06071 | 13 ft | 17 kts | 359° |
| 2026-04-26 17:38 | 40.48308 | 50.06070 | 13 ft | 16 kts | 359° |
| 2026-04-26 17:39 | 40.48417 | 50.06067 | 13 ft | 15 kts | 359° |
| 2026-04-26 17:39 | 40.48493 | 50.06104 | 12 ft | 12 kts | 56° |
| 2026-04-26 17:39 | 40.48501 | 50.06134 | 12 ft | 0 kts | 82° |
| 2026-04-26 17:40 | 40.48502 | 50.06193 | 13 ft | 15 kts | 91° |
| 2026-04-26 17:40 | 40.48462 | 50.06284 | 12 ft | 12 kts | 169° |
| 2026-04-26 17:41 | 40.48378 | 50.06283 | 12 ft | 9 kts | 177° |
| 2026-04-26 17:41 | 40.48376 | 50.06283 | 12 ft | 0 kts | 177° |
| 2026-04-26 17:42 | 40.48294 | 50.06286 | 12 ft | 41 kts | 178° |
| 2026-04-26 17:42 | 40.47758 | 50.06292 | 14 ft | 112 kts | 179° |
| 2026-04-26 17:43 | 40.46785 | 50.06314 | 93 ft | 157 kts | 178° |
| 2026-04-26 17:43 | 40.45680 | 50.06330 | 647 ft | 160 kts | 179° |
| 2026-04-26 17:43 | 40.44541 | 50.06336 | 1152 ft | 169 kts | 181° |
| 2026-04-26 17:43 | 40.43371 | 50.06353 | 1755 ft | 172 kts | 181° |
| 2026-04-26 17:44 | 40.42117 | 50.06373 | 2133 ft | 191 kts | 180° |
| 2026-04-26 17:44 | 40.40710 | 50.06396 | 2411 ft | 215 kts | 180° |
| 2026-04-26 17:44 | 40.39139 | 50.06423 | 2781 ft | 234 kts | 181° |
| 2026-04-26 17:44 | 40.37548 | 50.06484 | 3833 ft | 223 kts | 178° |
| 2026-04-26 17:45 | 40.35963 | 50.06660 | 4422 ft | 239 kts | 177° |
| 2026-04-26 17:45 | 40.34246 | 50.06881 | 4938 ft | 253 kts | 177° |
| 2026-04-26 17:45 | 40.32476 | 50.07118 | 5642 ft | 259 kts | 178° |
| 2026-04-26 17:45 | 40.30640 | 50.07363 | 6270 ft | 270 kts | 178° |
| 2026-04-26 17:46 | 40.28738 | 50.07612 | 6937 ft | 278 kts | 178° |
| 2026-04-26 17:46 | 40.26804 | 50.07864 | 7704 ft | 280 kts | 178° |
| 2026-04-26 17:46 | 40.24862 | 50.08116 | 8514 ft | 282 kts | 178° |
| 2026-04-26 17:46 | 40.22900 | 50.08369 | 9338 ft | 285 kts | 178° |
| 2026-04-26 17:47 | 40.20934 | 50.08623 | 10176 ft | 288 kts | 178° |
| 2026-04-26 17:47 | 40.20261 | 50.08708 | 10455 ft | 290 kts | 178° |
| 2026-04-26 17:47 | 40.16720 | 50.09146 | 11066 ft | 330 kts | 178° |
| 2026-04-26 17:47 | 40.14305 | 50.09443 | 11275 ft | 358 kts | 178° |
| 2026-04-26 17:48 | 40.11794 | 50.09758 | 11851 ft | 374 kts | 178° |
| 2026-04-26 17:48 | 40.09139 | 50.10096 | 12687 ft | 382 kts | 178° |
| 2026-04-26 17:48 | 40.06513 | 50.10433 | 13633 ft | 387 kts | 178° |
| 2026-04-26 17:48 | 40.03781 | 50.10780 | 14114 ft | 405 kts | 177° |
| 2026-04-26 17:49 | 40.00976 | 50.11135 | 14077 ft | 400 kts | 177° |
| 2026-04-26 17:49 | 39.98255 | 50.11485 | 14070 ft | 388 kts | 177° |
| 2026-04-26 17:49 | 39.95550 | 50.11829 | 14074 ft | 385 kts | 178° |
| 2026-04-26 17:49 | 39.92908 | 50.12161 | 14089 ft | 389 kts | 177° |
| 2026-04-26 17:50 | 39.90203 | 50.12498 | 14098 ft | 391 kts | 177° |
| 2026-04-26 17:50 | 39.87488 | 50.12837 | 14319 ft | 395 kts | 177° |
| 2026-04-26 17:50 | 39.84734 | 50.13181 | 15126 ft | 397 kts | 177° |
| 2026-04-26 17:50 | 39.81979 | 50.13526 | 15961 ft | 399 kts | 177° |
| 2026-04-26 17:51 | 39.79200 | 50.13856 | 16694 ft | 404 kts | 178° |
| 2026-04-26 17:51 | 39.76376 | 50.14079 | 17382 ft | 409 kts | 180° |
| 2026-04-26 17:51 | 39.73521 | 50.14246 | 18080 ft | 413 kts | 180° |
| 2026-04-26 17:51 | 39.70630 | 50.14399 | 18724 ft | 418 kts | 180° |
| 2026-04-26 17:52 | 39.67710 | 50.14556 | 19369 ft | 421 kts | 180° |
| 2026-04-26 17:52 | 39.64769 | 50.14723 | 20032 ft | 424 kts | 180° |
| 2026-04-26 17:52 | 39.61806 | 50.14899 | 20648 ft | 428 kts | 180° |
| 2026-04-26 17:52 | 39.58834 | 50.15081 | 21250 ft | 432 kts | 179° |
| 2026-04-26 17:53 | 39.55809 | 50.15269 | 21858 ft | 436 kts | 179° |
| 2026-04-26 17:53 | 39.52763 | 50.15462 | 22456 ft | 439 kts | 179° |
| 2026-04-26 17:53 | 39.49707 | 50.15655 | 23058 ft | 443 kts | 179° |
| 2026-04-26 17:54 | 39.43513 | 50.16047 | 24164 ft | 449 kts | 179° |
| 2026-04-26 17:54 | 39.40380 | 50.16246 | 24702 ft | 451 kts | 180° |
| 2026-04-26 17:54 | 39.37236 | 50.16444 | 25269 ft | 452 kts | 180° |
| 2026-04-26 17:54 | 39.34071 | 50.16644 | 25811 ft | 454 kts | 180° |
| 2026-04-26 17:55 | 39.30914 | 50.16843 | 26323 ft | 456 kts | 180° |
| 2026-04-26 17:55 | 39.27735 | 50.17042 | 26825 ft | 459 kts | 180° |
| 2026-04-26 17:55 | 39.24538 | 50.17242 | 27326 ft | 461 kts | 180° |
| 2026-04-26 17:55 | 39.21321 | 50.17444 | 27832 ft | 463 kts | 180° |
| 2026-04-26 17:56 | 39.19183 | 50.17578 | 28162 ft | 464 kts | 180° |
| 2026-04-26 17:56 | 39.12700 | 50.17983 | 29048 ft | 469 kts | 180° |
| 2026-04-26 17:57 | 39.06147 | 50.18392 | 29884 ft | 473 kts | 180° |
| 2026-04-26 17:57 | 39.02872 | 50.18597 | 30267 ft | 474 kts | 180° |
| 2026-04-26 17:57 | 38.99561 | 50.18804 | 30677 ft | 473 kts | 180° |
| 2026-04-26 17:57 | 38.96281 | 50.19010 | 31147 ft | 471 kts | 180° |
| 2026-04-26 17:58 | 38.86530 | 50.19618 | 32505 ft | 465 kts | 180° |
| 2026-04-26 17:59 | 38.80069 | 50.20018 | 33298 ft | 463 kts | 180° |
| 2026-04-26 17:59 | 38.76862 | 50.20216 | 33720 ft | 461 kts | 181° |
| 2026-04-26 17:59 | 38.73701 | 50.20412 | 34088 ft | 460 kts | 181° |
| 2026-04-26 17:59 | 38.70502 | 50.20609 | 34393 ft | 459 kts | 181° |
| 2026-04-26 18:00 | 38.67302 | 50.20806 | 34655 ft | 460 kts | 181° |
| 2026-04-26 18:00 | 38.64108 | 50.21003 | 34923 ft | 459 kts | 181° |
| 2026-04-26 18:00 | 38.57682 | 50.21396 | 35049 ft | 464 kts | 181° |
| 2026-04-26 18:01 | 38.51257 | 50.21793 | 35085 ft | 460 kts | 181° |
| 2026-04-26 18:01 | 38.44879 | 50.22186 | 35099 ft | 457 kts | 181° |
| 2026-04-26 18:02 | 38.39590 | 50.22510 | 35092 ft | 457 kts | 181° |
| 2026-04-26 18:02 | 38.32214 | 50.22960 | 35088 ft | 456 kts | 181° |
| 2026-04-26 18:03 | 38.25865 | 50.23348 | 35093 ft | 457 kts | 181° |
| 2026-04-26 18:03 | 38.19508 | 50.23735 | 35093 ft | 458 kts | 181° |
| 2026-04-26 18:04 | 38.13124 | 50.24124 | 35089 ft | 459 kts | 181° |
| 2026-04-26 18:05 | 38.03532 | 50.24713 | 35085 ft | 461 kts | 181° |
| 2026-04-26 18:05 | 37.97155 | 50.25103 | 35088 ft | 462 kts | 181° |
| 2026-04-26 18:06 | 37.90733 | 50.25496 | 35092 ft | 462 kts | 181° |
| 2026-04-26 18:06 | 37.84298 | 50.25899 | 35080 ft | 463 kts | 181° |
| 2026-04-26 18:07 | 37.77857 | 50.26305 | 35083 ft | 463 kts | 181° |
| 2026-04-26 18:07 | 37.71402 | 50.26710 | 35085 ft | 464 kts | 181° |
| 2026-04-26 18:08 | 37.64953 | 50.27112 | 35082 ft | 464 kts | 181° |
| 2026-04-26 18:08 | 37.58505 | 50.27514 | 35085 ft | 464 kts | 181° |
| 2026-04-26 18:09 | 37.52088 | 50.27913 | 35081 ft | 464 kts | 181° |
| 2026-04-26 18:09 | 37.45637 | 50.28314 | 35080 ft | 465 kts | 181° |
| 2026-04-26 18:10 | 37.39169 | 50.28715 | 35079 ft | 465 kts | 181° |
| 2026-04-26 18:10 | 37.32703 | 50.29116 | 35082 ft | 465 kts | 181° |
| 2026-04-26 18:11 | 37.26229 | 50.29515 | 35078 ft | 465 kts | 181° |
| 2026-04-26 18:11 | 37.19757 | 50.29913 | 35079 ft | 465 kts | 181° |
| 2026-04-26 18:12 | 37.13319 | 50.30309 | 35077 ft | 465 kts | 181° |
| 2026-04-26 18:12 | 37.06848 | 50.30705 | 35072 ft | 465 kts | 181° |
| 2026-04-26 18:13 | 37.00386 | 50.31042 | 35077 ft | 465 kts | 182° |
| 2026-04-26 18:13 | 36.93913 | 50.31286 | 35069 ft | 465 kts | 182° |
| 2026-04-26 18:14 | 36.87454 | 50.31529 | 35078 ft | 464 kts | 182° |
| 2026-04-26 18:14 | 36.80994 | 50.31786 | 35085 ft | 464 kts | 182° |
| 2026-04-26 18:15 | 36.74530 | 50.32047 | 35089 ft | 464 kts | 182° |
| 2026-04-26 18:15 | 36.68106 | 50.32306 | 35083 ft | 461 kts | 182° |
| 2026-04-26 18:16 | 36.61706 | 50.32567 | 35098 ft | 460 kts | 182° |
| 2026-04-26 18:16 | 36.52086 | 50.32952 | 35096 ft | 461 kts | 182° |
| 2026-04-26 18:17 | 36.45709 | 50.33207 | 35096 ft | 462 kts | 182° |
| 2026-04-26 18:17 | 36.39289 | 50.33465 | 35104 ft | 461 kts | 182° |
| 2026-04-26 18:18 | 36.32870 | 50.33722 | 35112 ft | 461 kts | 182° |
| 2026-04-26 18:18 | 36.26459 | 50.33969 | 35108 ft | 461 kts | 182° |
| 2026-04-26 18:19 | 36.20037 | 50.34144 | 35106 ft | 461 kts | 182° |
| 2026-04-26 18:19 | 36.13631 | 50.34305 | 35101 ft | 461 kts | 182° |
| 2026-04-26 18:20 | 36.07205 | 50.34476 | 35096 ft | 461 kts | 182° |
| 2026-04-26 18:20 | 36.01876 | 50.34621 | 35086 ft | 461 kts | 182° |
| 2026-04-26 18:21 | 35.94368 | 50.34825 | 35084 ft | 462 kts | 182° |
| 2026-04-26 18:21 | 35.87945 | 50.34990 | 35081 ft | 462 kts | 182° |
| 2026-04-26 18:22 | 35.81509 | 50.35153 | 35081 ft | 463 kts | 182° |
| 2026-04-26 18:22 | 35.75060 | 50.35317 | 35089 ft | 464 kts | 182° |
| 2026-04-26 18:23 | 35.68640 | 50.35481 | 35086 ft | 464 kts | 182° |
| 2026-04-26 18:23 | 35.62164 | 50.35623 | 35092 ft | 465 kts | 183° |
| 2026-04-26 18:24 | 35.55675 | 50.35749 | 35085 ft | 466 kts | 183° |
| 2026-04-26 18:24 | 35.49228 | 50.35892 | 35094 ft | 466 kts | 182° |
| 2026-04-26 18:25 | 35.42728 | 50.36063 | 35081 ft | 467 kts | 182° |
| 2026-04-26 18:25 | 35.36228 | 50.36235 | 35085 ft | 467 kts | 182° |
| 2026-04-26 18:26 | 35.29726 | 50.36402 | 35084 ft | 467 kts | 183° |
| 2026-04-26 18:26 | 35.23227 | 50.36567 | 35083 ft | 467 kts | 183° |
| 2026-04-26 18:27 | 35.16724 | 50.36733 | 35075 ft | 467 kts | 183° |
| 2026-04-26 18:27 | 35.10217 | 50.36896 | 35073 ft | 468 kts | 183° |
| 2026-04-26 18:28 | 35.03702 | 50.37289 | 35065 ft | 472 kts | 176° |
| 2026-04-26 18:28 | 34.97234 | 50.39011 | 35059 ft | 479 kts | 166° |
| 2026-04-26 18:29 | 34.90918 | 50.41746 | 35058 ft | 481 kts | 164° |
| 2026-04-26 18:29 | 34.84654 | 50.44502 | 35054 ft | 482 kts | 165° |
| 2026-04-26 18:30 | 34.78320 | 50.47227 | 35051 ft | 483 kts | 165° |
| 2026-04-26 18:30 | 34.71978 | 50.49936 | 35049 ft | 483 kts | 165° |
| 2026-04-26 18:31 | 34.65629 | 50.52654 | 35056 ft | 484 kts | 165° |
| 2026-04-26 18:31 | 34.59273 | 50.55378 | 35060 ft | 484 kts | 165° |
| 2026-04-26 18:32 | 34.52903 | 50.58105 | 35061 ft | 485 kts | 165° |
| 2026-04-26 18:32 | 34.46540 | 50.60823 | 35073 ft | 486 kts | 165° |
| 2026-04-26 18:33 | 34.40155 | 50.63546 | 35090 ft | 486 kts | 165° |
| 2026-04-26 18:33 | 34.33804 | 50.66250 | 35092 ft | 487 kts | 166° |
| 2026-04-26 18:34 | 34.27405 | 50.68971 | 35104 ft | 488 kts | 166° |
| 2026-04-26 18:34 | 34.21009 | 50.71685 | 35116 ft | 487 kts | 166° |
| 2026-04-26 18:35 | 34.14610 | 50.74396 | 35129 ft | 487 kts | 166° |
| 2026-04-26 18:35 | 34.08197 | 50.77109 | 35134 ft | 488 kts | 166° |
| 2026-04-26 18:36 | 34.01782 | 50.79817 | 35143 ft | 488 kts | 166° |
| 2026-04-26 18:36 | 33.95366 | 50.82523 | 35150 ft | 488 kts | 167° |
| 2026-04-26 18:37 | 33.88950 | 50.85225 | 35162 ft | 488 kts | 167° |
| 2026-04-26 18:37 | 33.82532 | 50.87923 | 35167 ft | 487 kts | 167° |
| 2026-04-26 18:38 | 33.76166 | 50.90594 | 35177 ft | 487 kts | 167° |
| 2026-04-26 18:38 | 33.69736 | 50.93288 | 35190 ft | 487 kts | 167° |
| 2026-04-26 18:39 | 33.63366 | 50.95953 | 35198 ft | 487 kts | 167° |
| 2026-04-26 18:39 | 33.56956 | 50.98631 | 35192 ft | 488 kts | 167° |
| 2026-04-26 18:40 | 33.50541 | 51.01307 | 35197 ft | 488 kts | 167° |
| 2026-04-26 18:40 | 33.44112 | 51.03982 | 35186 ft | 489 kts | 167° |
| 2026-04-26 18:41 | 33.38726 | 51.06218 | 35191 ft | 489 kts | 167° |
| 2026-04-26 18:41 | 33.32334 | 51.08870 | 35191 ft | 490 kts | 167° |
| 2026-04-26 18:42 | 33.25886 | 51.11542 | 35187 ft | 490 kts | 167° |
| 2026-04-26 18:42 | 33.19427 | 51.14215 | 35189 ft | 491 kts | 167° |
| 2026-04-26 18:43 | 33.12957 | 51.16887 | 35184 ft | 492 kts | 167° |
| 2026-04-26 18:43 | 33.06482 | 51.19558 | 35186 ft | 492 kts | 167° |
| 2026-04-26 18:44 | 32.99993 | 51.22231 | 35180 ft | 493 kts | 167° |
| 2026-04-26 18:44 | 32.93546 | 51.24882 | 35175 ft | 493 kts | 168° |
| 2026-04-26 18:45 | 32.87045 | 51.27552 | 35170 ft | 494 kts | 168° |
| 2026-04-26 18:45 | 32.80547 | 51.30211 | 35172 ft | 494 kts | 168° |
| 2026-04-26 18:46 | 32.74029 | 51.32872 | 35174 ft | 495 kts | 168° |
| 2026-04-26 18:46 | 32.67503 | 51.35533 | 35154 ft | 496 kts | 168° |
| 2026-04-26 18:47 | 32.60976 | 51.38193 | 35156 ft | 496 kts | 168° |
| 2026-04-26 18:47 | 32.54438 | 51.40852 | 35153 ft | 497 kts | 168° |
| 2026-04-26 18:48 | 32.47896 | 51.43505 | 35153 ft | 497 kts | 168° |
| 2026-04-26 18:48 | 32.41335 | 51.46162 | 35144 ft | 498 kts | 168° |
| 2026-04-26 18:49 | 32.34818 | 51.48798 | 35154 ft | 499 kts | 168° |
| 2026-04-26 18:49 | 32.28237 | 51.51457 | 35151 ft | 499 kts | 168° |
| 2026-04-26 18:50 | 32.21659 | 51.54111 | 35167 ft | 500 kts | 168° |
| 2026-04-26 18:50 | 32.15059 | 51.56769 | 35168 ft | 500 kts | 168° |
| 2026-04-26 18:51 | 32.08451 | 51.59427 | 35166 ft | 501 kts | 168° |
| 2026-04-26 18:51 | 32.01861 | 51.62073 | 35180 ft | 501 kts | 168° |
| 2026-04-26 18:52 | 31.95289 | 51.64708 | 35184 ft | 501 kts | 169° |
| 2026-04-26 18:52 | 31.88677 | 51.67356 | 35198 ft | 501 kts | 169° |
| 2026-04-26 18:53 | 31.82067 | 51.69998 | 35193 ft | 502 kts | 169° |
| 2026-04-26 18:53 | 31.75445 | 51.72641 | 35197 ft | 502 kts | 169° |
| 2026-04-26 18:54 | 31.68835 | 51.75276 | 35200 ft | 501 kts | 169° |
| 2026-04-26 18:54 | 31.62275 | 51.77888 | 35203 ft | 500 kts | 169° |
| 2026-04-26 18:55 | 31.55687 | 51.80508 | 35211 ft | 499 kts | 169° |
| 2026-04-26 18:55 | 31.49071 | 51.83135 | 35221 ft | 499 kts | 169° |
| 2026-04-26 18:56 | 31.42476 | 51.85749 | 35210 ft | 499 kts | 169° |
| 2026-04-26 18:56 | 31.35944 | 51.88335 | 35211 ft | 499 kts | 169° |
| 2026-04-26 18:57 | 31.30469 | 51.90501 | 35214 ft | 499 kts | 169° |
| 2026-04-26 18:57 | 31.22768 | 51.93545 | 35224 ft | 500 kts | 169° |
| 2026-04-26 18:58 | 31.16169 | 51.96149 | 35207 ft | 501 kts | 169° |
| 2026-04-26 18:58 | 31.09558 | 51.98755 | 35210 ft | 501 kts | 169° |
| 2026-04-26 18:59 | 31.02940 | 52.01360 | 35209 ft | 502 kts | 169° |
| 2026-04-26 18:59 | 30.96366 | 52.03943 | 35215 ft | 502 kts | 169° |
| 2026-04-26 19:00 | 30.89728 | 52.06549 | 35205 ft | 504 kts | 169° |
| 2026-04-26 19:00 | 30.83088 | 52.09150 | 35200 ft | 504 kts | 169° |
| 2026-04-26 19:01 | 30.76441 | 52.11751 | 35205 ft | 503 kts | 169° |
| 2026-04-26 19:01 | 30.69795 | 52.14350 | 35203 ft | 504 kts | 169° |
| 2026-04-26 19:02 | 30.63144 | 52.16945 | 35204 ft | 503 kts | 169° |
| 2026-04-26 19:02 | 30.57615 | 52.19093 | 35199 ft | 504 kts | 169° |
| 2026-04-26 19:03 | 30.49820 | 52.22115 | 35185 ft | 504 kts | 169° |
| 2026-04-26 19:03 | 30.43207 | 52.24677 | 35187 ft | 505 kts | 169° |
| 2026-04-26 19:04 | 30.36503 | 52.27271 | 35183 ft | 505 kts | 169° |
| 2026-04-26 19:04 | 30.29823 | 52.29852 | 35181 ft | 506 kts | 169° |
| 2026-04-26 19:05 | 30.19837 | 52.33705 | 35171 ft | 506 kts | 169° |
| 2026-04-26 19:06 | 30.13160 | 52.36276 | 35174 ft | 506 kts | 169° |
| 2026-04-26 19:06 | 30.06452 | 52.38855 | 35164 ft | 507 kts | 169° |
| 2026-04-26 19:07 | 29.99745 | 52.41429 | 35158 ft | 509 kts | 169° |
| 2026-04-26 19:07 | 29.93023 | 52.44006 | 35156 ft | 510 kts | 169° |
| 2026-04-26 19:08 | 29.86276 | 52.46590 | 35154 ft | 512 kts | 169° |
| 2026-04-26 19:08 | 29.79512 | 52.49176 | 35174 ft | 513 kts | 169° |
| 2026-04-26 19:09 | 29.72717 | 52.51770 | 35175 ft | 515 kts | 169° |
| 2026-04-26 19:09 | 29.65916 | 52.54363 | 35175 ft | 516 kts | 169° |
| 2026-04-26 19:10 | 29.59128 | 52.56949 | 35177 ft | 517 kts | 169° |
| 2026-04-26 19:10 | 29.52291 | 52.59450 | 35160 ft | 512 kts | 173° |
| 2026-04-26 19:11 | 29.45390 | 52.61430 | 35162 ft | 510 kts | 174° |
| 2026-04-26 19:11 | 29.38495 | 52.63336 | 35156 ft | 510 kts | 174° |
| 2026-04-26 19:12 | 29.31608 | 52.65266 | 35153 ft | 510 kts | 174° |
| 2026-04-26 19:12 | 29.24713 | 52.67219 | 35135 ft | 509 kts | 174° |
| 2026-04-26 19:13 | 29.17843 | 52.69169 | 35122 ft | 509 kts | 174° |
| 2026-04-26 19:13 | 29.10956 | 52.71119 | 35126 ft | 509 kts | 174° |
| 2026-04-26 19:14 | 29.04080 | 52.73061 | 35118 ft | 510 kts | 174° |
| 2026-04-26 19:14 | 28.97188 | 52.75004 | 35122 ft | 510 kts | 174° |
| 2026-04-26 19:15 | 28.90296 | 52.76946 | 35090 ft | 510 kts | 174° |
| 2026-04-26 19:15 | 28.83435 | 52.78877 | 35096 ft | 510 kts | 174° |
| 2026-04-26 19:16 | 28.76534 | 52.80817 | 35091 ft | 510 kts | 174° |
| 2026-04-26 19:16 | 28.69631 | 52.82752 | 35067 ft | 510 kts | 174° |
| 2026-04-26 19:17 | 28.62746 | 52.84683 | 35065 ft | 511 kts | 174° |
| 2026-04-26 19:17 | 28.55829 | 52.86617 | 35055 ft | 511 kts | 174° |
| 2026-04-26 19:18 | 28.48909 | 52.88553 | 35055 ft | 511 kts | 174° |
| 2026-04-26 19:18 | 28.41992 | 52.90482 | 35028 ft | 513 kts | 174° |
| 2026-04-26 19:19 | 28.35036 | 52.92390 | 35001 ft | 514 kts | 174° |
| 2026-04-26 19:19 | 28.28072 | 52.94250 | 34994 ft | 513 kts | 174° |
| 2026-04-26 19:20 | 28.21148 | 52.96097 | 34992 ft | 514 kts | 174° |
| 2026-04-26 19:20 | 28.14199 | 52.97957 | 34986 ft | 514 kts | 174° |
| 2026-04-26 19:21 | 28.07218 | 52.99824 | 34985 ft | 514 kts | 174° |
| 2026-04-26 19:21 | 28.00243 | 53.01689 | 34978 ft | 515 kts | 174° |
| 2026-04-26 19:22 | 27.93277 | 53.03548 | 34979 ft | 515 kts | 174° |
| 2026-04-26 19:22 | 27.87488 | 53.05091 | 34973 ft | 515 kts | 174° |
| 2026-04-26 19:23 | 27.80513 | 53.06949 | 34973 ft | 514 kts | 174° |
| 2026-04-26 19:23 | 27.73529 | 53.08806 | 34971 ft | 514 kts | 174° |
| 2026-04-26 19:24 | 27.66568 | 53.10653 | 34965 ft | 514 kts | 174° |
| 2026-04-26 19:24 | 27.56174 | 53.13409 | 34955 ft | 514 kts | 174° |
| 2026-04-26 19:25 | 27.50351 | 53.14950 | 34946 ft | 514 kts | 174° |
| 2026-04-26 19:25 | 27.42246 | 53.17093 | 34945 ft | 516 kts | 174° |
| 2026-04-26 19:26 | 27.35221 | 53.18968 | 34938 ft | 518 kts | 173° |
| 2026-04-26 19:26 | 27.28245 | 53.21100 | 34935 ft | 522 kts | 172° |
| 2026-04-26 19:27 | 27.21234 | 53.23324 | 34921 ft | 523 kts | 172° |
| 2026-04-26 19:27 | 27.14202 | 53.25507 | 34908 ft | 523 kts | 172° |
| 2026-04-26 19:28 | 27.07166 | 53.27663 | 34896 ft | 523 kts | 172° |
| 2026-04-26 19:28 | 27.00197 | 53.29794 | 34889 ft | 523 kts | 172° |
| 2026-04-26 19:29 | 26.93173 | 53.31943 | 34900 ft | 523 kts | 172° |
| 2026-04-26 19:29 | 26.86123 | 53.34135 | 34886 ft | 526 kts | 169° |
| 2026-04-26 19:30 | 26.79398 | 53.37633 | 34883 ft | 541 kts | 155° |
| 2026-04-26 19:30 | 26.74327 | 53.41811 | 34873 ft | 550 kts | 144° |
| 2026-04-26 19:31 | 26.67559 | 53.48400 | 34871 ft | 550 kts | 144° |
| 2026-04-26 19:31 | 26.61731 | 53.53942 | 34874 ft | 549 kts | 145° |
| 2026-04-26 19:32 | 26.55859 | 53.59397 | 34867 ft | 547 kts | 147° |
| 2026-04-26 19:32 | 26.49662 | 53.64222 | 34867 ft | 542 kts | 152° |
| 2026-04-26 19:33 | 26.46475 | 53.66568 | 34144 ft | 554 kts | 152° |
| 2026-04-26 19:33 | 26.43256 | 53.68950 | 33252 ft | 557 kts | 152° |
| 2026-04-26 19:33 | 26.40119 | 53.71308 | 32296 ft | 538 kts | 151° |
| 2026-04-26 19:33 | 26.37072 | 53.73618 | 31410 ft | 521 kts | 152° |
| 2026-04-26 19:34 | 26.34088 | 53.75880 | 30558 ft | 516 kts | 152° |
| 2026-04-26 19:34 | 26.31094 | 53.78136 | 30018 ft | 528 kts | 152° |
| 2026-04-26 19:34 | 26.27975 | 53.80461 | 29286 ft | 550 kts | 152° |
| 2026-04-26 19:34 | 26.24782 | 53.82842 | 28618 ft | 553 kts | 151° |
| 2026-04-26 19:35 | 26.21607 | 53.85224 | 28152 ft | 550 kts | 151° |
| 2026-04-26 19:35 | 26.18449 | 53.87601 | 27524 ft | 538 kts | 150° |
| 2026-04-26 19:35 | 26.15388 | 53.89902 | 26389 ft | 525 kts | 150° |
| 2026-04-26 19:35 | 26.12432 | 53.92124 | 25318 ft | 512 kts | 149° |
| 2026-04-26 19:36 | 26.09657 | 53.94619 | 24459 ft | 513 kts | 140° |
| 2026-04-26 19:36 | 26.07989 | 53.96576 | 24233 ft | 518 kts | 135° |
| 2026-04-26 19:36 | 26.05096 | 54.00784 | 24157 ft | 517 kts | 126° |
| 2026-04-26 19:36 | 26.03337 | 54.04268 | 24132 ft | 515 kts | 120° |
| 2026-04-26 19:37 | 26.01725 | 54.07819 | 24101 ft | 512 kts | 120° |
| 2026-04-26 19:37 | 26.00142 | 54.11323 | 24021 ft | 506 kts | 120° |
| 2026-04-26 19:37 | 25.98515 | 54.14818 | 23933 ft | 506 kts | 120° |
| 2026-04-26 19:37 | 25.96885 | 54.18244 | 23868 ft | 497 kts | 121° |
| 2026-04-26 19:38 | 25.95294 | 54.21574 | 23538 ft | 479 kts | 121° |
| 2026-04-26 19:38 | 25.93768 | 54.24777 | 22595 ft | 464 kts | 121° |
| 2026-04-26 19:38 | 25.92289 | 54.27929 | 21430 ft | 453 kts | 119° |
| 2026-04-26 19:38 | 25.91053 | 54.31118 | 20202 ft | 447 kts | 112° |
| 2026-04-26 19:39 | 25.90058 | 54.34416 | 19187 ft | 451 kts | 111° |
| 2026-04-26 19:39 | 25.89066 | 54.37710 | 18521 ft | 445 kts | 112° |
| 2026-04-26 19:39 | 25.88065 | 54.40935 | 17937 ft | 434 kts | 112° |
| 2026-04-26 19:39 | 25.87079 | 54.44051 | 17425 ft | 426 kts | 112° |
| 2026-04-26 19:40 | 25.86092 | 54.47137 | 16944 ft | 423 kts | 112° |
| 2026-04-26 19:40 | 25.85108 | 54.50207 | 16460 ft | 419 kts | 112° |
| 2026-04-26 19:40 | 25.84139 | 54.53239 | 16001 ft | 415 kts | 111° |
| 2026-04-26 19:40 | 25.83183 | 54.56246 | 15528 ft | 411 kts | 111° |
| 2026-04-26 19:41 | 25.82236 | 54.59231 | 15083 ft | 408 kts | 111° |
| 2026-04-26 19:41 | 25.81300 | 54.62179 | 14895 ft | 405 kts | 111° |
| 2026-04-26 19:41 | 25.80223 | 54.65058 | 14859 ft | 412 kts | 120° |
| 2026-04-26 19:41 | 25.79235 | 54.66910 | 14878 ft | 414 kts | 126° |
| 2026-04-26 19:42 | 25.76811 | 54.70207 | 14851 ft | 411 kts | 138° |
| 2026-04-26 19:42 | 25.74795 | 54.72324 | 14853 ft | 398 kts | 140° |
| 2026-04-26 19:42 | 25.72800 | 54.74373 | 14840 ft | 382 kts | 140° |
| 2026-04-26 19:42 | 25.70897 | 54.76335 | 14839 ft | 365 kts | 140° |
| 2026-04-26 19:43 | 25.69090 | 54.78215 | 14839 ft | 349 kts | 140° |
| 2026-04-26 19:43 | 25.67348 | 54.80039 | 14844 ft | 341 kts | 140° |
| 2026-04-26 19:43 | 25.65575 | 54.81897 | 14884 ft | 360 kts | 139° |
| 2026-04-26 19:43 | 25.63739 | 54.83826 | 14822 ft | 364 kts | 139° |
| 2026-04-26 19:44 | 25.61914 | 54.85772 | 14449 ft | 362 kts | 136° |
| 2026-04-26 19:44 | 25.60482 | 54.88079 | 13949 ft | 367 kts | 115° |
| 2026-04-26 19:44 | 25.59464 | 54.90806 | 13786 ft | 394 kts | 113° |
| 2026-04-26 19:44 | 25.58422 | 54.93619 | 13764 ft | 397 kts | 114° |
| 2026-04-26 19:45 | 25.57315 | 54.96519 | 13770 ft | 421 kts | 114° |
| 2026-04-26 19:45 | 25.56139 | 54.99529 | 13371 ft | 421 kts | 114° |
| 2026-04-26 19:45 | 25.55000 | 55.02423 | 12815 ft | 398 kts | 114° |
| 2026-04-26 19:45 | 25.53843 | 55.05141 | 12360 ft | 391 kts | 120° |
| 2026-04-26 19:46 | 25.52471 | 55.07820 | 11898 ft | 408 kts | 122° |
| 2026-04-26 19:46 | 25.51007 | 55.10517 | 11526 ft | 405 kts | 122° |
| 2026-04-26 19:46 | 25.49623 | 55.13067 | 11066 ft | 388 kts | 121° |
| 2026-04-26 19:46 | 25.48245 | 55.15672 | 10550 ft | 377 kts | 121° |
| 2026-04-26 19:47 | 25.46982 | 55.18097 | 10313 ft | 348 kts | 120° |
| 2026-04-26 19:47 | 25.46184 | 55.19624 | 10153 ft | 330 kts | 122° |
| 2026-04-26 19:47 | 25.44360 | 55.22239 | 9938 ft | 320 kts | 135° |
| 2026-04-26 19:47 | 25.42855 | 55.24016 | 9864 ft | 317 kts | 136° |
| 2026-04-26 19:48 | 25.41318 | 55.25806 | 9882 ft | 323 kts | 135° |
| 2026-04-26 19:48 | 25.39792 | 55.27630 | 9896 ft | 330 kts | 134° |
| 2026-04-26 19:48 | 25.38236 | 55.29527 | 9898 ft | 333 kts | 133° |
| 2026-04-26 19:48 | 25.36692 | 55.31412 | 9557 ft | 321 kts | 133° |
| 2026-04-26 19:49 | 25.35267 | 55.33213 | 9055 ft | 308 kts | 128° |
| 2026-04-26 19:49 | 25.34101 | 55.35151 | 8479 ft | 298 kts | 121° |
| 2026-04-26 19:49 | 25.33063 | 55.37106 | 7918 ft | 290 kts | 120° |
| 2026-04-26 19:49 | 25.32034 | 55.39057 | 7673 ft | 305 kts | 121° |
| 2026-04-26 19:50 | 25.30937 | 55.41096 | 7476 ft | 310 kts | 121° |
| 2026-04-26 19:50 | 25.29818 | 55.43135 | 7297 ft | 306 kts | 122° |
| 2026-04-26 19:50 | 25.28725 | 55.45104 | 7163 ft | 295 kts | 122° |
| 2026-04-26 19:50 | 25.27662 | 55.47012 | 6974 ft | 286 kts | 122° |
| 2026-04-26 19:51 | 25.26644 | 55.48840 | 6731 ft | 280 kts | 122° |
| 2026-04-26 19:51 | 25.25628 | 55.50666 | 6378 ft | 278 kts | 122° |
| 2026-04-26 19:51 | 25.24615 | 55.52486 | 5980 ft | 279 kts | 121° |
| 2026-04-26 19:51 | 25.23601 | 55.54308 | 5625 ft | 277 kts | 121° |
| 2026-04-26 19:52 | 25.22593 | 55.56122 | 5283 ft | 275 kts | 121° |
| 2026-04-26 19:52 | 25.21593 | 55.57918 | 4921 ft | 273 kts | 121° |
| 2026-04-26 19:52 | 25.20609 | 55.59683 | 4566 ft | 273 kts | 121° |
| 2026-04-26 19:52 | 25.19614 | 55.61471 | 4160 ft | 272 kts | 121° |
| 2026-04-26 19:53 | 25.18622 | 55.63254 | 3789 ft | 272 kts | 121° |
| 2026-04-26 19:53 | 25.17631 | 55.65033 | 3425 ft | 271 kts | 121° |
| 2026-04-26 19:53 | 25.16646 | 55.66801 | 3120 ft | 269 kts | 121° |
| 2026-04-26 19:53 | 25.15686 | 55.68523 | 3033 ft | 260 kts | 122° |
| 2026-04-26 19:54 | 25.14744 | 55.70212 | 3009 ft | 256 kts | 122° |
| 2026-04-26 19:54 | 25.13815 | 55.71878 | 3004 ft | 253 kts | 122° |
| 2026-04-26 19:54 | 25.12889 | 55.73536 | 3018 ft | 254 kts | 122° |
| 2026-04-26 19:54 | 25.11959 | 55.75202 | 3025 ft | 256 kts | 122° |
| 2026-04-26 19:55 | 25.11021 | 55.76880 | 3029 ft | 257 kts | 122° |
| 2026-04-26 19:55 | 25.10094 | 55.78536 | 3036 ft | 257 kts | 121° |
| 2026-04-26 19:55 | 25.09153 | 55.80218 | 3050 ft | 259 kts | 122° |
| 2026-04-26 19:55 | 25.08203 | 55.81916 | 3041 ft | 260 kts | 121° |
| 2026-04-26 19:56 | 25.07218 | 55.83588 | 3019 ft | 258 kts | 132° |
| 2026-04-26 19:56 | 25.05798 | 55.84695 | 3042 ft | 248 kts | 167° |
| 2026-04-26 19:56 | 25.04127 | 55.84854 | 3058 ft | 241 kts | 195° |
| 2026-04-26 19:56 | 25.02538 | 55.84294 | 3053 ft | 238 kts | 214° |
| 2026-04-26 19:57 | 25.01320 | 55.83158 | 3037 ft | 225 kts | 245° |
| 2026-04-26 19:57 | 25.00896 | 55.81572 | 3039 ft | 212 kts | 273° |
| 2026-04-26 19:57 | 25.01097 | 55.79982 | 3039 ft | 210 kts | 291° |
| 2026-04-26 19:57 | 25.01749 | 55.78571 | 3077 ft | 206 kts | 301° |
| 2026-04-26 19:58 | 25.02527 | 55.77195 | 3041 ft | 212 kts | 303° |
| 2026-04-26 19:58 | 25.03350 | 55.75842 | 3038 ft | 213 kts | 303° |
| 2026-04-26 19:58 | 25.04149 | 55.74500 | 3025 ft | 211 kts | 303° |
| 2026-04-26 19:58 | 25.04930 | 55.73143 | 3025 ft | 208 kts | 302° |
| 2026-04-26 19:59 | 25.05692 | 55.71794 | 3033 ft | 207 kts | 302° |
| 2026-04-26 19:59 | 25.06452 | 55.70436 | 3028 ft | 209 kts | 301° |
| 2026-04-26 19:59 | 25.07211 | 55.69072 | 3032 ft | 209 kts | 301° |
| 2026-04-26 19:59 | 25.07975 | 55.67694 | 3030 ft | 211 kts | 302° |
| 2026-04-26 20:00 | 25.08746 | 55.66303 | 3020 ft | 213 kts | 302° |
| 2026-04-26 20:00 | 25.09525 | 55.64897 | 3031 ft | 215 kts | 301° |
| 2026-04-26 20:00 | 25.10307 | 55.63486 | 3028 ft | 216 kts | 301° |
| 2026-04-26 20:00 | 25.11092 | 55.62068 | 3014 ft | 218 kts | 302° |
| 2026-04-26 20:01 | 25.11883 | 55.60640 | 3012 ft | 217 kts | 302° |
| 2026-04-26 20:01 | 25.12669 | 55.59220 | 3002 ft | 216 kts | 302° |
| 2026-04-26 20:01 | 25.13449 | 55.57813 | 2996 ft | 214 kts | 302° |
| 2026-04-26 20:01 | 25.14225 | 55.56413 | 3011 ft | 212 kts | 302° |
| 2026-04-26 20:02 | 25.14978 | 55.55051 | 2990 ft | 202 kts | 302° |
| 2026-04-26 20:02 | 25.15676 | 55.53790 | 2907 ft | 193 kts | 301° |
| 2026-04-26 20:02 | 25.16363 | 55.52548 | 2641 ft | 186 kts | 301° |
| 2026-04-26 20:02 | 25.16591 | 55.52136 | 2564 ft | 185 kts | 301° |
| 2026-04-26 20:03 | 25.17646 | 55.50231 | 2212 ft | 164 kts | 301° |
| 2026-04-26 20:03 | 25.18215 | 55.49203 | 2014 ft | 150 kts | 301° |
| 2026-04-26 20:03 | 25.18747 | 55.48241 | 1808 ft | 147 kts | 301° |
| 2026-04-26 20:03 | 25.19282 | 55.47271 | 1628 ft | 148 kts | 301° |
| 2026-04-26 20:04 | 25.19819 | 55.46303 | 1421 ft | 148 kts | 301° |
| 2026-04-26 20:04 | 25.20364 | 55.45318 | 1252 ft | 152 kts | 302° |
| 2026-04-26 20:04 | 25.20917 | 55.44318 | 1048 ft | 153 kts | 301° |
| 2026-04-26 20:04 | 25.21474 | 55.43292 | 824 ft | 158 kts | 300° |
| 2026-04-26 20:05 | 25.22036 | 55.42265 | 640 ft | 159 kts | 301° |
| 2026-04-26 20:05 | 25.22627 | 55.41202 | 473 ft | 165 kts | 301° |
| 2026-04-26 20:05 | 25.23224 | 55.40128 | 244 ft | 161 kts | 300° |
| 2026-04-26 20:05 | 25.23807 | 55.39089 | 51 ft | 158 kts | 299° |
| 2026-04-26 20:06 | 25.24345 | 55.38117 | 36 ft | 134 kts | 300° |
| 2026-04-26 20:06 | 25.24753 | 55.37391 | 33 ft | 89 kts | 301° |
| 2026-04-26 20:06 | 25.24945 | 55.37070 | 34 ft | 26 kts | 313° |
| 2026-04-26 20:06 | 25.25032 | 55.36996 | 34 ft | 24 kts | 330° |
| 2026-04-26 20:07 | 25.25170 | 55.36906 | 29 ft | 23 kts | 329° |
| 2026-04-26 20:07 | 25.25290 | 55.36791 | 28 ft | 23 kts | 307° |
| 2026-04-26 20:07 | 25.25376 | 55.36643 | 28 ft | 23 kts | 306° |
| 2026-04-26 20:07 | 25.25461 | 55.36493 | 28 ft | 23 kts | 299° |
| 2026-04-26 20:08 | 25.25544 | 55.36341 | 28 ft | 23 kts | 302° |
| 2026-04-26 20:08 | 25.25609 | 55.36231 | 28 ft | 14 kts | 303° |
| 2026-04-26 20:08 | 25.25660 | 55.36142 | 28 ft | 11 kts | 306° |
| 2026-04-26 20:08 | 25.25726 | 55.36132 | 30 ft | 11 kts | 26° |
| 2026-04-26 20:09 | 25.25789 | 55.36174 | 33 ft | 11 kts | 32° |
| 2026-04-26 20:09 | 25.25853 | 55.36218 | 33 ft | 11 kts | 32° |
| 2026-04-26 20:09 | 25.25925 | 55.36267 | 30 ft | 14 kts | 31° |
| 2026-04-26 20:09 | 25.25997 | 55.36315 | 27 ft | 9 kts | 30° |
| 2026-04-26 20:10 | 25.26059 | 55.36319 | 26 ft | 10 kts | 2° |
| 2026-04-26 20:10 | 25.26119 | 55.36346 | 30 ft | 8 kts | 30° |
| 2026-04-26 20:10 | 25.26141 | 55.36361 | 28 ft | 0 kts | 31° |
| 2026-04-26 20:10 | 25.26144 | 55.36363 | 28 ft | 1 kts | 31° |
| 2026-04-26 20:11 | 25.26147 | 55.36365 | 28 ft | 0 kts | 31° |